sensor_id;sensor_type;location;lat;lon;timestamp;pressure;altitude;pressure_sealevel;temperature;humidity
34983;BME280;21187;50.976;13.720;2023-06-22T00:00:01;98555.88;;;24.85;48.97
34983;BME280;21187;50.976;13.720;2023-06-22T00:05:12;98559.66;;;24.91;48.85
34983;BME280;21187;50.976;13.720;2023-06-22T00:10:14;98559.13;;;24.96;48.88
34983;BME280;21187;50.976;13.720;2023-06-22T00:15:16;98565.75;;;24.86;48.96
34983;BME280;21187;50.976;13.720;2023-06-22T00:20:18;98576.34;;;24.58;49.53
34983;BME280;21187;50.976;13.720;2023-06-22T00:25:20;98581.53;;;24.39;49.79
34983;BME280;21187;50.976;13.720;2023-06-22T00:30:22;98584.16;;;24.30;50.04
34983;BME280;21187;50.976;13.720;2023-06-22T00:35:24;98577.03;;;24.29;50.06
34983;BME280;21187;50.976;13.720;2023-06-22T00:40:32;98575.84;;;24.30;50.29
34983;BME280;21187;50.976;13.720;2023-06-22T00:45:34;98581.13;;;24.24;50.13
34983;BME280;21187;50.976;13.720;2023-06-22T00:50:37;98571.94;;;24.11;50.58
34983;BME280;21187;50.976;13.720;2023-06-22T00:55:43;98565.97;;;23.96;50.94
34983;BME280;21187;50.976;13.720;2023-06-22T01:00:47;98565.44;;;23.85;51.17
34983;BME280;21187;50.976;13.720;2023-06-22T01:05:49;98574.13;;;23.83;51.31
34983;BME280;21187;50.976;13.720;2023-06-22T01:11:26;98559.84;;;23.68;51.50
34983;BME280;21187;50.976;13.720;2023-06-22T01:16:32;98560.03;;;23.61;51.85
34983;BME280;21187;50.976;13.720;2023-06-22T01:21:35;98568.91;;;23.69;51.71
34983;BME280;21187;50.976;13.720;2023-06-22T01:26:46;98562.69;;;23.65;51.58
34983;BME280;21187;50.976;13.720;2023-06-22T01:31:56;98570.47;;;23.70;51.32
34983;BME280;21187;50.976;13.720;2023-06-22T01:36:59;98569.03;;;23.65;51.68
34983;BME280;21187;50.976;13.720;2023-06-22T01:42:04;98566.13;;;23.52;51.83
34983;BME280;21187;50.976;13.720;2023-06-22T01:47:07;98562.06;;;23.57;51.66
34983;BME280;21187;50.976;13.720;2023-06-22T01:52:10;98566.06;;;23.56;51.62
34983;BME280;21187;50.976;13.720;2023-06-22T01:57:12;98567.59;;;23.57;51.21
34983;BME280;21187;50.976;13.720;2023-06-22T02:02:17;98552.56;;;23.58;51.22
34983;BME280;21187;50.976;13.720;2023-06-22T02:07:23;98548.78;;;23.52;51.47
34983;BME280;21187;50.976;13.720;2023-06-22T02:12:26;98560.94;;;23.18;52.33
34983;BME280;21187;50.976;13.720;2023-06-22T02:17:29;98552.72;;;23.10;52.45
34983;BME280;21187;50.976;13.720;2023-06-22T02:22:35;98554.19;;;23.19;51.94
34983;BME280;21187;50.976;13.720;2023-06-22T02:27:37;98567.66;;;23.17;52.05
34983;BME280;21187;50.976;13.720;2023-06-22T02:32:43;98565.31;;;23.15;51.92
34983;BME280;21187;50.976;13.720;2023-06-22T02:37:45;98545.53;;;23.17;51.91
34983;BME280;21187;50.976;13.720;2023-06-22T02:42:48;98560.56;;;23.16;51.82
34983;BME280;21187;50.976;13.720;2023-06-22T02:47:50;98577.38;;;23.01;52.05
34983;BME280;21187;50.976;13.720;2023-06-22T02:52:52;98583.75;;;22.98;52.19
34983;BME280;21187;50.976;13.720;2023-06-22T02:57:54;98575.47;;;22.98;52.10
34983;BME280;21187;50.976;13.720;2023-06-22T03:02:57;98560.66;;;22.88;52.28
34983;BME280;21187;50.976;13.720;2023-06-22T03:07:59;98564.00;;;22.80;52.52
34983;BME280;21187;50.976;13.720;2023-06-22T03:13:04;98575.31;;;22.85;52.54
34983;BME280;21187;50.976;13.720;2023-06-22T03:18:06;98553.38;;;22.78;52.68
34983;BME280;21187;50.976;13.720;2023-06-22T03:23:08;98541.69;;;22.70;52.84
34983;BME280;21187;50.976;13.720;2023-06-22T03:28:12;98525.75;;;22.78;52.88
34983;BME280;21187;50.976;13.720;2023-06-22T03:33:15;98533.19;;;22.81;52.87
34983;BME280;21187;50.976;13.720;2023-06-22T03:38:17;98543.59;;;22.93;52.65
34983;BME280;21187;50.976;13.720;2023-06-22T03:43:19;98549.00;;;23.01;52.54
34983;BME280;21187;50.976;13.720;2023-06-22T03:48:21;98539.28;;;23.13;52.48
34983;BME280;21187;50.976;13.720;2023-06-22T03:53:23;98546.75;;;23.16;52.51
34983;BME280;21187;50.976;13.720;2023-06-22T03:58:25;98545.47;;;23.20;52.70
34983;BME280;21187;50.976;13.720;2023-06-22T04:03:27;98535.97;;;23.21;52.51
34983;BME280;21187;50.976;13.720;2023-06-22T04:08:29;98542.13;;;23.29;52.54
34983;BME280;21187;50.976;13.720;2023-06-22T04:13:31;98549.16;;;23.34;52.61
34983;BME280;21187;50.976;13.720;2023-06-22T04:18:33;98557.63;;;23.43;52.52
34983;BME280;21187;50.976;13.720;2023-06-22T04:23:35;98561.38;;;23.53;52.58
34983;BME280;21187;50.976;13.720;2023-06-22T04:28:37;98560.63;;;23.69;52.35
34983;BME280;21187;50.976;13.720;2023-06-22T04:33:38;98556.69;;;23.86;52.27
34983;BME280;21187;50.976;13.720;2023-06-22T04:38:42;98558.38;;;24.00;52.23
34983;BME280;21187;50.976;13.720;2023-06-22T04:43:44;98574.69;;;24.11;52.26
34983;BME280;21187;50.976;13.720;2023-06-22T04:48:45;98585.03;;;24.27;51.95
34983;BME280;21187;50.976;13.720;2023-06-22T04:53:47;98600.41;;;24.45;51.91
34983;BME280;21187;50.976;13.720;2023-06-22T04:58:49;98604.09;;;24.54;51.47
34983;BME280;21187;50.976;13.720;2023-06-22T05:03:53;98616.75;;;24.55;51.54
34983;BME280;21187;50.976;13.720;2023-06-22T05:08:58;98633.78;;;24.54;51.82
34983;BME280;21187;50.976;13.720;2023-06-22T05:14:00;98642.19;;;24.50;52.10
34983;BME280;21187;50.976;13.720;2023-06-22T05:19:03;98646.06;;;24.53;52.08
34983;BME280;21187;50.976;13.720;2023-06-22T05:24:05;98645.38;;;24.49;52.26
34983;BME280;21187;50.976;13.720;2023-06-22T05:29:07;98650.94;;;24.49;52.61
34983;BME280;21187;50.976;13.720;2023-06-22T05:34:09;98646.63;;;24.64;52.08
34983;BME280;21187;50.976;13.720;2023-06-22T05:39:14;98616.28;;;24.90;52.03
34983;BME280;21187;50.976;13.720;2023-06-22T05:44:17;98636.66;;;25.13;51.28
34983;BME280;21187;50.976;13.720;2023-06-22T05:49:19;98631.16;;;25.42;51.25
34983;BME280;21187;50.976;13.720;2023-06-22T05:54:21;98632.00;;;25.68;51.66
34983;BME280;21187;50.976;13.720;2023-06-22T05:59:22;98625.03;;;25.89;51.71
34983;BME280;21187;50.976;13.720;2023-06-22T06:04:24;98623.63;;;26.11;51.38
34983;BME280;21187;50.976;13.720;2023-06-22T06:09:28;98620.25;;;26.29;50.74
34983;BME280;21187;50.976;13.720;2023-06-22T06:14:30;98611.59;;;26.39;50.60
34983;BME280;21187;50.976;13.720;2023-06-22T06:19:32;98596.31;;;26.57;50.49
34983;BME280;21187;50.976;13.720;2023-06-22T06:24:34;98579.97;;;26.72;50.55
34983;BME280;21187;50.976;13.720;2023-06-22T06:29:36;98525.75;;;26.89;50.25
34983;BME280;21187;50.976;13.720;2023-06-22T06:34:38;98474.16;;;27.11;49.93
34983;BME280;21187;50.976;13.720;2023-06-22T06:39:39;98521.84;;;27.31;49.74
34983;BME280;21187;50.976;13.720;2023-06-22T06:44:45;98537.06;;;27.39;48.89
34983;BME280;21187;50.976;13.720;2023-06-22T06:49:46;98529.09;;;27.51;48.76
34983;BME280;21187;50.976;13.720;2023-06-22T06:54:48;98511.97;;;27.62;48.33
34983;BME280;21187;50.976;13.720;2023-06-22T06:59:50;98521.28;;;27.68;48.11
34983;BME280;21187;50.976;13.720;2023-06-22T07:04:52;98524.59;;;27.85;47.50
34983;BME280;21187;50.976;13.720;2023-06-22T07:09:54;98523.53;;;27.92;46.82
34983;BME280;21187;50.976;13.720;2023-06-22T07:15:07;98512.59;;;28.06;46.50
34983;BME280;21187;50.976;13.720;2023-06-22T07:20:14;98530.28;;;28.22;46.28
34983;BME280;21187;50.976;13.720;2023-06-22T07:25:16;98537.09;;;28.39;45.81
34983;BME280;21187;50.976;13.720;2023-06-22T07:30:18;98535.88;;;28.59;45.88
34983;BME280;21187;50.976;13.720;2023-06-22T07:35:20;98531.88;;;28.79;45.68
34983;BME280;21187;50.976;13.720;2023-06-22T07:40:22;98516.69;;;28.98;45.45
34983;BME280;21187;50.976;13.720;2023-06-22T07:45:24;98522.66;;;29.15;45.06
34983;BME280;21187;50.976;13.720;2023-06-22T07:50:26;98534.28;;;29.32;44.89
34983;BME280;21187;50.976;13.720;2023-06-22T07:55:29;98543.88;;;29.41;44.70
34983;BME280;21187;50.976;13.720;2023-06-22T08:00:31;98532.50;;;29.53;44.61
34983;BME280;21187;50.976;13.720;2023-06-22T08:05:35;98525.50;;;29.67;44.36
34983;BME280;21187;50.976;13.720;2023-06-22T08:10:37;98518.88;;;29.89;43.74
34983;BME280;21187;50.976;13.720;2023-06-22T08:15:39;98526.09;;;30.05;43.88
34983;BME280;21187;50.976;13.720;2023-06-22T08:20:41;98520.91;;;30.13;43.19
34983;BME280;21187;50.976;13.720;2023-06-22T08:25:43;98514.03;;;30.23;42.98
34983;BME280;21187;50.976;13.720;2023-06-22T08:30:45;98507.91;;;30.34;43.09
34983;BME280;21187;50.976;13.720;2023-06-22T08:35:47;98507.03;;;30.52;42.69
34983;BME280;21187;50.976;13.720;2023-06-22T08:40:49;98503.00;;;30.68;42.21
34983;BME280;21187;50.976;13.720;2023-06-22T08:45:50;98502.91;;;30.92;41.77
34983;BME280;21187;50.976;13.720;2023-06-22T08:50:52;98497.25;;;31.01;41.39
34983;BME280;21187;50.976;13.720;2023-06-22T08:55:54;98508.94;;;31.15;41.13
34983;BME280;21187;50.976;13.720;2023-06-22T09:00:56;98500.63;;;31.35;40.92
34983;BME280;21187;50.976;13.720;2023-06-22T09:06:01;98492.28;;;31.56;40.48
34983;BME280;21187;50.976;13.720;2023-06-22T09:11:03;98500.66;;;31.86;39.99
34983;BME280;21187;50.976;13.720;2023-06-22T09:16:05;98483.97;;;31.97;39.43
34983;BME280;21187;50.976;13.720;2023-06-22T09:21:07;98480.13;;;31.95;39.39
34983;BME280;21187;50.976;13.720;2023-06-22T09:26:10;98483.91;;;32.12;38.90
34983;BME280;21187;50.976;13.720;2023-06-22T09:31:11;98472.50;;;32.16;38.86
34983;BME280;21187;50.976;13.720;2023-06-22T09:36:13;98484.53;;;32.01;38.46
34983;BME280;21187;50.976;13.720;2023-06-22T09:41:16;98466.22;;;32.00;37.97
34983;BME280;21187;50.976;13.720;2023-06-22T09:46:18;98464.94;;;32.01;38.17
34983;BME280;21187;50.976;13.720;2023-06-22T09:51:20;98463.25;;;31.89;37.87
34983;BME280;21187;50.976;13.720;2023-06-22T09:56:23;98455.56;;;32.05;37.64
34983;BME280;21187;50.976;13.720;2023-06-22T10:01:27;98457.94;;;32.32;37.10
34983;BME280;21187;50.976;13.720;2023-06-22T10:06:29;98459.50;;;32.33;37.02
34983;BME280;21187;50.976;13.720;2023-06-22T10:11:30;98450.50;;;32.29;36.42
34983;BME280;21187;50.976;13.720;2023-06-22T10:16:33;98452.03;;;32.51;36.42
34983;BME280;21187;50.976;13.720;2023-06-22T10:21:37;98446.69;;;32.53;35.85
34983;BME280;21187;50.976;13.720;2023-06-22T10:26:39;98441.75;;;32.42;35.86
34983;BME280;21187;50.976;13.720;2023-06-22T10:31:41;98437.69;;;32.23;35.90
34983;BME280;21187;50.976;13.720;2023-06-22T10:36:43;98437.16;;;32.18;36.16
34983;BME280;21187;50.976;13.720;2023-06-22T10:41:45;98420.47;;;32.30;36.07
34983;BME280;21187;50.976;13.720;2023-06-22T10:46:46;98419.47;;;32.59;35.77
34983;BME280;21187;50.976;13.720;2023-06-22T10:51:48;98419.28;;;32.89;35.57
34983;BME280;21187;50.976;13.720;2023-06-22T10:56:50;98409.69;;;33.01;35.08
34983;BME280;21187;50.976;13.720;2023-06-22T11:01:53;98408.81;;;32.90;34.98
34983;BME280;21187;50.976;13.720;2023-06-22T11:06:55;98413.13;;;32.85;34.79
34983;BME280;21187;50.976;13.720;2023-06-22T11:11:58;98410.06;;;32.89;34.63
34983;BME280;21187;50.976;13.720;2023-06-22T11:17:01;98408.97;;;32.75;34.77
34983;BME280;21187;50.976;13.720;2023-06-22T11:22:03;98402.78;;;32.97;34.36
34983;BME280;21187;50.976;13.720;2023-06-22T11:27:05;98384.09;;;33.26;33.82
34983;BME280;21187;50.976;13.720;2023-06-22T11:32:07;98384.00;;;33.52;33.63
34983;BME280;21187;50.976;13.720;2023-06-22T11:37:12;98374.81;;;33.57;33.87
34983;BME280;21187;50.976;13.720;2023-06-22T11:42:14;98377.19;;;33.76;33.63
34983;BME280;21187;50.976;13.720;2023-06-22T11:47:16;98364.78;;;33.88;33.54
34983;BME280;21187;50.976;13.720;2023-06-22T11:52:18;98373.53;;;34.13;33.31
34983;BME280;21187;50.976;13.720;2023-06-22T11:57:21;98367.91;;;34.13;33.26
34983;BME280;21187;50.976;13.720;2023-06-22T12:02:22;98361.03;;;34.20;33.07
34983;BME280;21187;50.976;13.720;2023-06-22T12:07:24;98346.47;;;34.21;32.86
34983;BME280;21187;50.976;13.720;2023-06-22T12:12:26;98342.88;;;34.15;32.55
34983;BME280;21187;50.976;13.720;2023-06-22T12:17:28;98340.25;;;33.94;33.22
34983;BME280;21187;50.976;13.720;2023-06-22T12:22:34;98311.94;;;34.04;33.10
34983;BME280;21187;50.976;13.720;2023-06-22T12:27:37;98314.53;;;34.19;32.83
34983;BME280;21187;50.976;13.720;2023-06-22T12:32:39;98328.59;;;34.24;32.30
34983;BME280;21187;50.976;13.720;2023-06-22T12:37:41;98312.47;;;34.19;32.16
34983;BME280;21187;50.976;13.720;2023-06-22T12:42:45;98304.81;;;34.03;32.58
34983;BME280;21187;50.976;13.720;2023-06-22T12:47:47;98304.50;;;33.89;32.52
34983;BME280;21187;50.976;13.720;2023-06-22T12:52:49;98305.78;;;33.99;32.50
34983;BME280;21187;50.976;13.720;2023-06-22T12:57:51;98298.41;;;34.19;32.19
34983;BME280;21187;50.976;13.720;2023-06-22T13:02:52;98295.63;;;34.30;32.06
34983;BME280;21187;50.976;13.720;2023-06-22T13:07:56;98287.72;;;34.46;31.94
34983;BME280;21187;50.976;13.720;2023-06-22T13:12:58;98288.75;;;34.54;31.62
34983;BME280;21187;50.976;13.720;2023-06-22T13:18:02;98286.19;;;34.62;31.77
34983;BME280;21187;50.976;13.720;2023-06-22T13:23:04;98288.50;;;34.63;31.47
34983;BME280;21187;50.976;13.720;2023-06-22T13:28:06;98284.66;;;34.66;31.53
34983;BME280;21187;50.976;13.720;2023-06-22T13:33:24;98271.84;;;34.82;31.29
34983;BME280;21187;50.976;13.720;2023-06-22T13:38:26;98246.25;;;34.97;31.15
34983;BME280;21187;50.976;13.720;2023-06-22T13:43:28;98247.25;;;35.06;30.75
34983;BME280;21187;50.976;13.720;2023-06-22T13:48:30;98222.97;;;34.97;30.89
34983;BME280;21187;50.976;13.720;2023-06-22T13:53:32;98215.84;;;34.85;30.83
34983;BME280;21187;50.976;13.720;2023-06-22T13:58:34;98220.19;;;34.91;30.51
34983;BME280;21187;50.976;13.720;2023-06-22T14:03:35;98229.38;;;34.97;30.64
34983;BME280;21187;50.976;13.720;2023-06-22T14:08:37;98229.63;;;34.94;30.39
34983;BME280;21187;50.976;13.720;2023-06-22T14:13:42;98218.16;;;34.86;30.13
34983;BME280;21187;50.976;13.720;2023-06-22T14:18:45;98199.22;;;34.81;30.36
34983;BME280;21187;50.976;13.720;2023-06-22T14:23:47;98200.75;;;34.71;30.43
34983;BME280;21187;50.976;13.720;2023-06-22T14:28:52;98188.78;;;34.59;30.57
34983;BME280;21187;50.976;13.720;2023-06-22T14:33:54;98193.66;;;34.58;30.93
34983;BME280;21187;50.976;13.720;2023-06-22T14:38:56;98190.56;;;34.56;30.83
34983;BME280;21187;50.976;13.720;2023-06-22T14:43:58;98174.97;;;34.61;30.67
34983;BME280;21187;50.976;13.720;2023-06-22T14:49:00;98166.25;;;34.70;30.35
34983;BME280;21187;50.976;13.720;2023-06-22T14:54:02;98154.00;;;34.67;30.33
34983;BME280;21187;50.976;13.720;2023-06-22T14:59:04;98144.28;;;34.63;30.14
34983;BME280;21187;50.976;13.720;2023-06-22T15:04:06;98145.56;;;34.56;30.24
34983;BME280;21187;50.976;13.720;2023-06-22T15:09:08;98140.78;;;34.40;30.69
34983;BME280;21187;50.976;13.720;2023-06-22T15:14:10;98142.31;;;34.35;30.25
34983;BME280;21187;50.976;13.720;2023-06-22T15:19:12;98136.19;;;34.42;30.55
34983;BME280;21187;50.976;13.720;2023-06-22T15:24:14;98126.19;;;34.47;30.88
34983;BME280;21187;50.976;13.720;2023-06-22T15:29:16;98108.03;;;34.48;30.56
34983;BME280;21187;50.976;13.720;2023-06-22T15:34:18;98110.34;;;34.44;30.74
34983;BME280;21187;50.976;13.720;2023-06-22T15:39:20;98092.72;;;34.38;30.79
34983;BME280;21187;50.976;13.720;2023-06-22T15:44:24;98093.25;;;34.36;31.12
34983;BME280;21187;50.976;13.720;2023-06-22T15:49:26;98087.88;;;34.32;31.33
34983;BME280;21187;50.976;13.720;2023-06-22T15:54:29;98072.03;;;34.29;31.57
34983;BME280;21187;50.976;13.720;2023-06-22T15:59:31;98063.88;;;34.20;31.54
34983;BME280;21187;50.976;13.720;2023-06-22T16:04:33;98046.03;;;34.12;31.59
34983;BME280;21187;50.976;13.720;2023-06-22T16:09:35;98056.25;;;34.04;32.00
34983;BME280;21187;50.976;13.720;2023-06-22T16:14:37;98052.44;;;33.95;31.95
34983;BME280;21187;50.976;13.720;2023-06-22T16:19:43;98052.19;;;33.82;32.47
34983;BME280;21187;50.976;13.720;2023-06-22T16:24:45;98047.34;;;33.71;32.45
34983;BME280;21187;50.976;13.720;2023-06-22T16:29:47;98044.53;;;33.65;32.61
34983;BME280;21187;50.976;13.720;2023-06-22T16:34:49;98047.84;;;33.64;33.28
34983;BME280;21187;50.976;13.720;2023-06-22T16:39:51;98060.09;;;33.61;33.23
34983;BME280;21187;50.976;13.720;2023-06-22T16:44:54;98057.81;;;33.59;33.48
34983;BME280;21187;50.976;13.720;2023-06-22T16:49:55;98046.06;;;33.55;33.50
34983;BME280;21187;50.976;13.720;2023-06-22T16:54:57;98038.41;;;33.50;33.52
34983;BME280;21187;50.976;13.720;2023-06-22T17:00:03;98021.06;;;33.46;33.73
34983;BME280;21187;50.976;13.720;2023-06-22T17:05:11;98000.13;;;33.36;33.96
34983;BME280;21187;50.976;13.720;2023-06-22T17:10:13;97997.06;;;33.33;34.07
34983;BME280;21187;50.976;13.720;2023-06-22T17:15:16;97990.94;;;33.29;34.10
34983;BME280;21187;50.976;13.720;2023-06-22T17:20:19;97976.13;;;33.23;34.87
34983;BME280;21187;50.976;13.720;2023-06-22T17:25:23;97953.91;;;33.14;35.04
34983;BME280;21187;50.976;13.720;2023-06-22T17:30:25;97962.84;;;32.95;35.38
34983;BME280;21187;50.976;13.720;2023-06-22T17:35:31;97956.22;;;32.81;35.61
34983;BME280;21187;50.976;13.720;2023-06-22T17:40:34;97950.06;;;32.72;35.83
34983;BME280;21187;50.976;13.720;2023-06-22T17:45:42;97942.88;;;32.59;36.13
34983;BME280;21187;50.976;13.720;2023-06-22T17:50:46;97951.53;;;32.50;36.31
34983;BME280;21187;50.976;13.720;2023-06-22T17:55:52;97925.00;;;32.40;36.70
34983;BME280;21187;50.976;13.720;2023-06-22T18:00:53;97927.25;;;32.24;36.89
34983;BME280;21187;50.976;13.720;2023-06-22T18:05:55;97909.34;;;32.05;37.06
34983;BME280;21187;50.976;13.720;2023-06-22T18:10:59;97894.75;;;31.89;37.27
34983;BME280;21187;50.976;13.720;2023-06-22T18:16:03;97894.69;;;31.78;37.66
34983;BME280;21187;50.976;13.720;2023-06-22T18:21:06;97893.88;;;31.66;37.87
34983;BME280;21187;50.976;13.720;2023-06-22T18:26:10;97893.03;;;31.54;38.18
34983;BME280;21187;50.976;13.720;2023-06-22T18:31:13;97885.84;;;31.42;38.04
34983;BME280;21187;50.976;13.720;2023-06-22T18:36:18;97875.56;;;31.27;38.54
34983;BME280;21187;50.976;13.720;2023-06-22T18:46:38;97864.13;;;30.93;38.96
34983;BME280;21187;50.976;13.720;2023-06-22T18:56:54;97875.66;;;30.75;39.10
34983;BME280;21187;50.976;13.720;2023-06-22T19:02:00;97884.50;;;30.67;39.42
34983;BME280;21187;50.976;13.720;2023-06-22T19:07:02;97900.91;;;30.54;39.65
34983;BME280;21187;50.976;13.720;2023-06-22T19:12:21;97891.69;;;30.48;39.86
34983;BME280;21187;50.976;13.720;2023-06-22T19:17:23;97893.50;;;30.30;40.21
34983;BME280;21187;50.976;13.720;2023-06-22T19:23:00;97892.38;;;30.22;40.11
34983;BME280;21187;50.976;13.720;2023-06-22T19:28:10;97882.84;;;30.08;40.43
34983;BME280;21187;50.976;13.720;2023-06-22T19:33:12;97883.22;;;29.95;40.34
34983;BME280;21187;50.976;13.720;2023-06-22T19:38:16;97859.44;;;29.85;40.88
34983;BME280;21187;50.976;13.720;2023-06-22T19:43:19;97849.69;;;29.75;41.19
34983;BME280;21187;50.976;13.720;2023-06-22T19:48:25;97851.66;;;29.68;41.42
34983;BME280;21187;50.976;13.720;2023-06-22T19:53:30;97847.44;;;29.58;41.91
34983;BME280;21187;50.976;13.720;2023-06-22T19:58:32;97836.69;;;29.51;42.19
34983;BME280;21187;50.976;13.720;2023-06-22T20:03:38;97818.09;;;29.42;42.32
34983;BME280;21187;50.976;13.720;2023-06-22T20:08:48;97831.19;;;29.36;42.49
34983;BME280;21187;50.976;13.720;2023-06-22T20:13:51;97832.75;;;29.22;42.67
34983;BME280;21187;50.976;13.720;2023-06-22T20:19:11;97814.00;;;29.22;42.79
34983;BME280;21187;50.976;13.720;2023-06-22T20:24:14;97788.53;;;29.15;43.11
34983;BME280;21187;50.976;13.720;2023-06-22T20:29:27;97761.06;;;29.08;43.49
34983;BME280;21187;50.976;13.720;2023-06-22T20:34:48;97761.75;;;29.02;43.38
34983;BME280;21187;50.976;13.720;2023-06-22T20:39:50;97776.66;;;28.99;43.42
34983;BME280;21187;50.976;13.720;2023-06-22T20:44:53;97768.88;;;29.03;43.68
34983;BME280;21187;50.976;13.720;2023-06-22T20:49:55;97761.34;;;29.10;43.26
34983;BME280;21187;50.976;13.720;2023-06-22T20:55:00;97735.28;;;29.13;43.32
34983;BME280;21187;50.976;13.720;2023-06-22T21:00:03;97735.75;;;29.11;43.56
34983;BME280;21187;50.976;13.720;2023-06-22T21:05:08;97754.94;;;29.03;43.39
34983;BME280;21187;50.976;13.720;2023-06-22T21:10:10;97756.31;;;28.93;44.21
34983;BME280;21187;50.976;13.720;2023-06-22T21:15:12;97771.88;;;28.85;44.14
34983;BME280;21187;50.976;13.720;2023-06-22T21:20:14;97801.50;;;28.67;45.10
34983;BME280;21187;50.976;13.720;2023-06-22T21:25:16;97793.81;;;28.62;45.08
34983;BME280;21187;50.976;13.720;2023-06-22T21:30:18;97811.97;;;28.72;45.12
34983;BME280;21187;50.976;13.720;2023-06-22T21:35:20;97819.38;;;28.76;45.54
34983;BME280;21187;50.976;13.720;2023-06-22T21:40:22;97813.44;;;28.68;45.78
34983;BME280;21187;50.976;13.720;2023-06-22T21:45:24;97783.84;;;28.70;46.15
34983;BME280;21187;50.976;13.720;2023-06-22T21:50:26;97770.88;;;28.67;46.43
34983;BME280;21187;50.976;13.720;2023-06-22T21:55:28;97727.53;;;28.66;46.38
34983;BME280;21187;50.976;13.720;2023-06-22T22:00:30;97762.31;;;28.56;46.97
34983;BME280;21187;50.976;13.720;2023-06-22T22:05:32;97788.84;;;28.36;47.58
34983;BME280;21187;50.976;13.720;2023-06-22T22:10:34;97814.16;;;28.38;47.96
34983;BME280;21187;50.976;13.720;2023-06-22T22:15:39;97850.78;;;28.31;48.41
34983;BME280;21187;50.976;13.720;2023-06-22T22:20:41;97852.56;;;28.04;48.84
34983;BME280;21187;50.976;13.720;2023-06-22T22:25:43;97838.09;;;27.91;49.08
34983;BME280;21187;50.976;13.720;2023-06-22T22:30:44;97902.81;;;27.77;49.93
34983;BME280;21187;50.976;13.720;2023-06-22T22:35:46;97915.09;;;27.27;51.64
34983;BME280;21187;50.976;13.720;2023-06-22T22:40:48;97902.19;;;27.15;51.95
34983;BME280;21187;50.976;13.720;2023-06-22T22:45:50;97881.13;;;27.23;51.51
34983;BME280;21187;50.976;13.720;2023-06-22T22:50:52;97907.13;;;27.11;52.23
34983;BME280;21187;50.976;13.720;2023-06-22T22:55:54;97914.59;;;26.95;52.59
34983;BME280;21187;50.976;13.720;2023-06-22T23:00:56;97945.97;;;26.77;53.33
34983;BME280;21187;50.976;13.720;2023-06-22T23:05:58;98055.78;;;25.91;57.18
34983;BME280;21187;50.976;13.720;2023-06-22T23:11:00;98069.84;;;24.77;58.94
34983;BME280;21187;50.976;13.720;2023-06-22T23:16:02;98126.13;;;23.70;60.67
34983;BME280;21187;50.976;13.720;2023-06-22T23:21:04;98198.13;;;22.88;62.38
34983;BME280;21187;50.976;13.720;2023-06-22T23:26:06;98222.22;;;22.34;63.26
34983;BME280;21187;50.976;13.720;2023-06-22T23:31:09;98224.81;;;22.05;63.46
34983;BME280;21187;50.976;13.720;2023-06-22T23:36:11;98134.78;;;22.31;62.28
34983;BME280;21187;50.976;13.720;2023-06-22T23:41:13;98153.28;;;22.67;60.82
34983;BME280;21187;50.976;13.720;2023-06-22T23:46:18;98139.31;;;22.74;60.47
34983;BME280;21187;50.976;13.720;2023-06-22T23:51:22;98095.59;;;23.02;59.67
34983;BME280;21187;50.976;13.720;2023-06-22T23:56:24;98091.50;;;23.23;58.62
